Time;durP1;ratioP1;P1;durP2;ratioP2;P2;SDS_P1;SDS_P2;PMS_P1;PMS_P2;Temp;Humidity;BMP_temperature;BMP_pressure;BME280_temperature;BME280_humidity;BME280_pressure;Samples;Min_cycle;Max_cycle;Signal;HPM_P1;HPM_P2
2021/09/27 00:01:48;;;;;;;7.50;1.10;;;;;;;25.55;45.07;99662.81;4414570;32;20097;-69
2021/09/27 00:04:14;;;;;;;6.25;1.40;;;;;;;25.35;45.46;99663.66;4414351;32;20033;-70
2021/09/27 00:06:53;;;;;;;7.72;1.37;;;;;;;25.50;45.29;99660.09;4412856;32;20060;-69
2021/09/27 00:09:33;;;;;;;5.57;1.25;;;;;;;25.19;45.81;99642.59;4412121;32;20092;-69
2021/09/27 00:12:12;;;;;;;9.38;1.67;;;;;;;25.11;46.17;99636.03;4409254;32;20104;-69
2021/09/27 00:14:51;;;;;;;5.87;1.20;;;;;;;25.19;46.06;99638.97;4413827;32;20480;-69
2021/09/27 00:17:17;;;;;;;4.97;1.20;;;;;;;24.79;47.09;99649.97;4414967;32;20059;-69
2021/09/27 00:19:43;;;;;;;4.18;1.35;;;;;;;25.13;46.29;99626.84;4413186;32;20655;-69
2021/09/27 00:22:09;;;;;;;5.20;1.50;;;;;;;25.01;46.47;99622.72;4414034;32;20049;-69
2021/09/27 00:24:35;;;;;;;6.55;1.40;;;;;;;25.15;46.24;99636.44;4415079;32;20426;-69
2021/09/27 00:27:01;;;;;;;5.60;1.17;;;;;;;25.28;45.94;99624.81;4413911;32;20124;-69
2021/09/27 00:29:27;;;;;;;3.42;1.00;;;;;;;25.24;46.04;99624.41;4411967;32;20053;-69
2021/09/27 00:31:53;;;;;;;5.45;1.62;;;;;;;25.22;46.03;99615.56;4413597;32;20052;-69
2021/09/27 00:34:19;;;;;;;4.57;1.20;;;;;;;24.93;46.87;99616.12;4413104;32;20099;-69
2021/09/27 00:36:44;;;;;;;7.82;1.85;;;;;;;24.70;47.45;99606.56;4414442;32;20419;-69
2021/09/27 00:39:11;;;;;;;9.15;1.27;;;;;;;25.43;45.69;99609.72;4414701;32;20146;-69
2021/09/27 00:41:37;;;;;;;9.02;1.80;;;;;;;25.27;46.11;99600.22;4416205;32;20111;-69
2021/09/27 00:44:03;;;;;;;4.65;1.08;;;;;;;25.86;44.96;99600.31;4413943;32;20103;-69
2021/09/27 00:46:32;;;;;;;2.87;1.08;;;;;;;25.90;44.67;99587.06;4414333;32;20100;-69
2021/09/27 00:49:00;;;;;;;6.55;1.67;;;;;;;25.72;45.26;99590.28;4414033;32;20140;-69
2021/09/27 00:51:30;;;;;;;5.75;2.22;;;;;;;25.60;45.50;99600.59;4418396;32;20367;-69
2021/09/27 00:54:04;;;;;;;5.30;1.58;;;;;;;25.66;45.37;99589.66;4413827;32;20056;-69
2021/09/27 00:56:35;;;;;;;6.00;1.35;;;;;;;25.79;45.23;99587.41;4416331;32;20436;-69
2021/09/27 00:59:05;;;;;;;8.88;1.27;;;;;;;25.92;44.88;99574.97;4413111;32;20081;-69
2021/09/27 01:01:31;;;;;;;3.90;1.10;;;;;;;25.38;46.07;99565.34;4414390;32;20443;-69
2021/09/27 01:03:57;;;;;;;8.55;1.55;;;;;;;25.09;46.57;99558.09;4413310;32;20099;-69
2021/09/27 01:26:05;;;;;;;5.90;1.17;;;;;;;25.80;45.88;99537.06;3974309;32;15022142;-70
2021/09/27 01:34:22;;;;;;;5.05;1.12;;;;;;;26.11;45.03;99523.53;3982536;32;15025881;-70
2021/09/27 01:36:57;;;;;;;7.50;1.58;;;;;;;26.11;45.03;99523.53;4439350;32;20042;-68
2021/09/27 01:39:37;;;;;;;6.12;1.30;;;;;;;25.60;45.98;99520.69;4439716;32;20142;-70
2021/09/27 01:42:19;;;;;;;4.60;1.20;;;;;;;25.73;45.67;99516.88;4437163;32;20065;-70
2021/09/27 01:48:11;;;;;;;12.52;1.55;;;;;;;24.96;47.51;99492.00;3992461;31;15018933;-70
2021/09/27 01:50:51;;;;;;;4.47;1.48;;;;;;;25.42;46.34;99500.84;4442113;32;20040;-70
2021/09/27 01:53:22;;;;;;;5.32;1.23;;;;;;;24.89;47.85;99475.47;4444331;32;20450;-70
2021/09/27 01:56:04;;;;;;;6.03;1.20;;;;;;;25.09;47.48;99477.47;4440752;32;20097;-70
2021/09/27 01:58:44;;;;;;;6.80;1.33;;;;;;;25.59;46.02;99472.28;4439156;32;20033;-70
2021/09/27 02:01:45;;;;;;;5.15;1.65;;;;;;;25.29;46.74;99479.50;4442497;32;20041;-70
2021/09/27 02:04:20;;;;;;;5.72;1.58;;;;;;;25.04;47.46;99475.53;4439708;32;20064;-70
2021/09/27 02:06:50;;;;;;;5.75;1.20;;;;;;;25.32;47.04;99472.59;4442287;32;20478;-70
2021/09/27 02:11:56;;;;;;;6.30;1.67;;;;;;;25.79;46.36;99474.25;3986206;32;15026999;-70
2021/09/27 02:17:10;;;;;;;7.68;1.33;;;;;;;25.71;46.62;99447.53;3992790;31;15016403;-70
2021/09/27 02:20:02;;;;;;;7.12;1.70;;;;;;;25.71;46.62;99447.53;4440977;32;20041;-70
2021/09/27 02:25:31;;;;;;;7.37;2.25;;;;;;;25.29;47.84;99436.28;3981342;32;15022822;-70
2021/09/27 02:28:00;;;;;;;7.90;1.55;;;;;;;25.29;47.84;99436.28;4432424;32;20118;-70
2021/09/27 02:30:50;;;;;;;6.72;1.60;;;;;;;24.80;48.66;99423.44;4435659;32;20362;-70
2021/09/27 02:36:32;;;;;;;6.97;1.40;;;;;;;25.33;47.30;99401.38;3981938;32;15025437;-69
2021/09/27 02:44:33;;;;;;;6.97;1.60;;;;;;;25.68;47.03;99396.81;3985635;32;15026691;-69
2021/09/27 02:47:01;;;;;;;6.05;1.50;;;;;;;25.68;47.03;99396.81;4433932;32;20073;-69
2021/09/27 02:49:33;;;;;;;6.78;1.60;;;;;;;25.39;47.41;99396.22;4438716;32;20092;-69
2021/09/27 02:52:02;;;;;;;6.57;1.50;;;;;;;25.47;47.06;99390.47;4434406;32;20064;-69
2021/09/27 03:03:23;;;;;;;5.47;1.65;;;;;;;26.05;46.34;99344.94;3980858;32;15023432;-70
2021/09/27 03:06:18;;;;;;;3.53;1.43;;;;;;;26.05;46.34;99344.94;4439301;32;20071;-70
2021/09/27 03:11:52;;;;;;;3.53;1.52;;;;;;;25.89;46.77;99334.00;3983313;32;15037974;-69
2021/09/27 03:36:24;;;;;;;8.27;1.75;;;;;;;25.66;48.42;99301.53;3999436;31;15016201;-69
2021/09/27 03:52:07;;;;;;;7.68;2.00;;;;;;;26.10;47.59;99262.47;3985135;32;15025610;-70
2021/09/27 03:54:39;;;;;;;4.32;2.10;;;;;;;26.10;47.59;99262.47;4438005;32;20413;-70
2021/09/27 03:57:12;;;;;;;7.03;2.10;;;;;;;25.15;49.08;99244.88;4437532;32;20092;-70
2021/09/27 04:02:26;;;;;;;8.75;1.83;;;;;;;25.72;48.17;99225.09;3972878;32;15023338;-70
2021/09/27 04:21:49;;;;;;;6.37;1.73;;;;;;;25.92;47.28;99180.81;3984589;32;15023065;-70
2021/09/27 04:33:09;;;;;;;3.92;1.73;;;;;;;26.15;46.71;99187.31;3994341;31;15016990;-69
2021/09/27 04:38:27;;;;;;;4.32;1.73;;;;;;;25.74;47.39;99164.75;3983172;32;15029032;-69
2021/09/27 04:41:21;;;;;;;4.53;1.25;;;;;;;25.74;47.39;99164.75;4435004;32;20133;-69
2021/09/27 04:44:27;;;;;;;4.80;1.25;;;;;;;25.99;46.38;99159.91;4433582;32;20061;-69
2021/09/27 04:47:23;;;;;;;5.45;1.27;;;;;;;25.51;47.25;99169.03;4433665;32;20395;-69
2021/09/27 04:55:45;;;;;;;4.60;1.10;;;;;;;25.29;48.68;99147.56;3982389;32;15023694;-70
2021/09/27 05:09:08;;;;;;;7.37;1.40;;;;;;;25.70;47.85;99114.63;3956204;32;15727583;-68
2021/09/27 05:17:56;;;;;;;4.90;1.17;;;;;;;25.71;47.92;99119.81;3981063;32;15024309;-70
2021/09/27 05:25:51;;;;;;;4.72;1.30;;;;;;;25.43;48.29;99096.31;3985954;32;15025479;-70
2021/09/27 05:33:57;;;;;;;8.63;1.20;;;;;;;25.51;48.24;99071.87;3982565;32;15023097;-70
2021/09/27 05:42:17;;;;;;;4.00;1.27;;;;;;;25.87;48.44;99042.69;3996046;31;15014859;-70
2021/09/27 05:56:01;;;;;;;4.85;1.50;;;;;;;25.08;50.54;99012.50;3998179;31;15015161;-70
2021/09/27 06:14:31;;;;;;;8.80;1.83;;;;;;;24.80;51.83;98957.31;3979508;31;15019996;-68
2021/09/27 06:17:23;;;;;;;10.35;2.10;;;;;;;24.80;51.83;98957.31;4431763;32;20099;-69
2021/09/27 06:20:02;;;;;;;9.85;1.58;;;;;;;24.55;52.16;98930.50;4430859;32;20060;-69
2021/09/27 06:22:57;;;;;;;8.77;1.98;;;;;;;24.32;52.91;98944.16;4430499;32;20076;-69
2021/09/27 06:25:38;;;;;;;9.32;2.37;;;;;;;24.18;53.24;98932.09;4427517;32;20077;-69
2021/09/27 06:36:33;;;;;;;15.52;2.62;;;;;;;24.00;54.76;98872.91;3987326;31;15016913;-70
2021/09/27 06:39:04;;;;;;;9.30;2.60;;;;;;;24.00;54.76;98872.91;4442615;32;20076;-70
2021/09/27 06:41:33;;;;;;;11.05;2.58;;;;;;;23.80;55.31;98875.97;4448799;32;20056;-70
2021/09/27 06:44:00;;;;;;;10.70;2.42;;;;;;;24.12;54.51;98868.31;4442545;32;20073;-70
2021/09/27 06:46:25;;;;;;;6.32;2.42;;;;;;;24.02;54.74;98869.47;4438065;32;20146;-70
2021/09/27 06:48:51;;;;;;;7.95;2.03;;;;;;;23.68;55.36;98860.44;4441182;32;20080;-70
2021/09/27 06:51:17;;;;;;;9.23;2.33;;;;;;;23.30;56.43;98860.41;4443403;32;20083;-70
2021/09/27 06:53:44;;;;;;;9.77;2.45;;;;;;;23.45;56.19;98854.69;4439339;32;20541;-69
2021/09/27 06:56:10;;;;;;;13.52;2.92;;;;;;;23.94;55.18;98848.56;4439522;32;20041;-69
2021/09/27 06:58:35;;;;;;;13.30;2.30;;;;;;;23.81;55.31;98840.91;4435812;32;20407;-69
2021/09/27 07:01:02;;;;;;;11.02;3.15;;;;;;;23.05;57.23;98839.28;4429051;32;20516;-69
2021/09/27 07:03:28;;;;;;;9.10;2.22;;;;;;;23.70;56.24;98826.16;4425319;32;20085;-68
2021/09/27 07:05:54;;;;;;;10.40;3.03;;;;;;;23.66;56.23;98823.69;4429781;32;20083;-69
2021/09/27 07:08:21;;;;;;;11.45;2.97;;;;;;;23.64;56.21;98817.75;4434016;32;20460;-69
2021/09/27 07:10:48;;;;;;;7.87;2.85;;;;;;;23.94;56.22;98817.72;4433644;32;20119;-68
2021/09/27 07:13:15;;;;;;;5.75;2.17;;;;;;;24.09;55.70;98851.44;4437938;32;20095;-68
2021/09/27 07:15:43;;;;;;;3.45;0.80;;;;;;;23.50;57.31;98876.69;4430156;32;20125;-69
2021/09/27 07:18:10;;;;;;;11.07;1.08;;;;;;;23.23;55.01;98918.53;4431894;32;20033;-69
2021/09/27 07:20:36;;;;;;;6.93;1.10;;;;;;;21.15;61.70;98955.88;4432753;32;20098;-68
2021/09/27 07:23:03;;;;;;;3.50;0.80;;;;;;;19.81;68.52;98963.91;4426212;32;20079;-68
2021/09/27 07:25:30;;;;;;;4.00;0.68;;;;;;;18.90;64.78;98986.28;4428886;32;20556;-68
2021/09/27 07:27:58;;;;;;;1.65;0.30;;;;;;;18.61;64.56;98979.37;4430683;32;20368;-68
2021/09/27 07:30:25;;;;;;;2.15;0.20;;;;;;;18.56;65.64;98968.03;4427894;32;20073;-68
2021/09/27 07:32:51;;;;;;;2.45;0.30;;;;;;;19.17;64.41;98945.19;4430524;32;20104;-68
2021/09/27 07:35:20;;;;;;;0.85;0.40;;;;;;;18.70;62.87;98922.00;4433688;32;20534;-68
2021/09/27 07:37:46;;;;;;;0.65;0.10;;;;;;;19.47;63.25;98948.66;4434095;32;20083;-68
2021/09/27 07:40:16;;;;;;;2.08;0.10;;;;;;;19.25;61.65;98960.38;4433903;32;20710;-68
2021/09/27 07:42:42;;;;;;;0.70;0.20;;;;;;;19.15;59.59;98982.03;4430060;32;20473;-68
2021/09/27 07:45:11;;;;;;;0.62;0.25;;;;;;;18.93;61.43;98982.34;4432165;32;20075;-69
2021/09/27 07:47:37;;;;;;;0.80;0.20;;;;;;;19.22;61.43;99004.22;4418652;32;20401;-70
2021/09/27 07:50:05;;;;;;;0.20;0.10;;;;;;;18.97;60.47;99014.16;4423328;32;20443;-70
2021/09/27 07:52:31;;;;;;;0.05;0.00;;;;;;;19.24;60.28;99001.63;4423372;32;20412;-70
2021/09/27 07:54:57;;;;;;;1.10;0.43;;;;;;;18.95;60.84;98988.25;4415933;32;20525;-70
2021/09/27 07:57:23;;;;;;;1.85;0.10;;;;;;;18.78;61.81;99021.91;4419756;32;20139;-70
2021/09/27 07:59:52;;;;;;;2.05;0.20;;;;;;;19.11;59.63;99033.66;4423581;32;20085;-70
2021/09/27 08:02:20;;;;;;;2.05;0.20;;;;;;;18.98;58.92;99047.81;4423057;32;20098;-69
2021/09/27 08:04:47;;;;;;;0.30;0.10;;;;;;;18.95;59.85;99054.59;4419887;32;20124;-68
2021/09/27 08:07:15;;;;;;;1.55;0.10;;;;;;;18.59;60.15;99035.34;4418208;32;20101;-68
2021/09/27 08:09:41;;;;;;;0.57;0.10;;;;;;;18.72;59.03;99024.06;4414871;32;20110;-68
2021/09/27 08:12:07;;;;;;;0.65;0.10;;;;;;;18.54;59.88;99059.72;4414296;32;20136;-68
2021/09/27 08:14:33;;;;;;;0.57;0.20;;;;;;;18.67;59.18;99064.75;4410645;32;20499;-69
2021/09/27 08:16:58;;;;;;;0.03;0.00;;;;;;;18.76;59.52;99078.66;4419406;32;20444;-69
2021/09/27 08:19:25;;;;;;;1.55;0.40;;;;;;;18.71;58.09;99105.12;4421665;32;20582;-69
2021/09/27 08:21:52;;;;;;;1.23;0.25;;;;;;;18.89;58.37;99101.56;4422034;32;20058;-69
2021/09/27 08:24:18;;;;;;;1.33;0.20;;;;;;;19.37;58.32;99108.03;4418063;32;20147;-69
2021/09/27 08:26:44;;;;;;;0.57;0.22;;;;;;;19.28;57.56;99108.41;4418529;32;20075;-69
2021/09/27 08:29:11;;;;;;;1.27;0.30;;;;;;;19.19;56.80;99122.22;4419004;32;20041;-69
2021/09/27 08:31:37;;;;;;;0.55;0.20;;;;;;;18.96;56.67;99138.06;4422179;32;20125;-69
2021/09/27 08:34:03;;;;;;;2.05;0.32;;;;;;;19.27;56.81;99132.50;4418104;32;20133;-69
2021/09/27 08:36:29;;;;;;;2.05;0.30;;;;;;;19.64;57.06;99143.97;4420703;32;20052;-69
2021/09/27 08:38:56;;;;;;;0.47;0.20;;;;;;;20.02;57.26;99141.88;4420913;32;20462;-69
2021/09/27 08:44:09;;;;;;;0.40;0.20;;;;;;;21.22;53.96;99155.44;3943453;32;15725335;-69
2021/09/27 08:46:48;;;;;;;1.77;0.40;;;;;;;21.22;53.96;99155.44;4421202;32;20072;-69
2021/09/27 08:52:14;;;;;;;0.80;0.20;;;;;;;21.07;52.69;99203.84;3970863;32;15023755;-69
2021/09/27 08:54:40;;;;;;;2.62;0.28;;;;;;;21.07;52.69;99203.84;4423148;32;20121;-69
2021/09/27 09:00:00;;;;;;;0.20;0.20;;;;;;;20.19;51.78;99228.09;3961856;32;15022590;-69
2021/09/27 09:05:36;;;;;;;0.88;0.30;;;;;;;20.03;50.46;99282.59;3975054;32;15024060;-70
2021/09/27 09:08:09;;;;;;;4.10;0.30;;;;;;;20.03;50.46;99282.59;4427049;32;20407;-69
2021/09/27 09:13:44;;;;;;;1.40;0.30;;;;;;;20.99;47.55;99297.31;3941023;32;15024793;-69
2021/09/27 09:16:16;;;;;;;1.20;0.30;;;;;;;20.99;47.55;99297.31;4386977;32;20095;-69
2021/09/27 09:18:46;;;;;;;2.70;0.50;;;;;;;21.37;47.74;99307.34;4386164;32;20142;-68
2021/09/27 09:21:19;;;;;;;2.25;0.28;;;;;;;21.81;47.22;99334.38;4381839;32;20078;-69
2021/09/27 09:23:52;;;;;;;1.37;0.22;;;;;;;22.20;45.42;99325.03;4379307;32;20639;-69
2021/09/27 09:26:24;;;;;;;4.68;0.40;;;;;;;22.79;45.03;99319.28;4382296;32;20065;-69
2021/09/27 09:28:53;;;;;;;5.30;0.35;;;;;;;22.66;43.20;99341.50;4380995;32;20090;-68
2021/09/27 09:31:22;;;;;;;3.42;0.30;;;;;;;21.77;44.61;99336.03;4382688;32;21143;-68
2021/09/27 09:33:54;;;;;;;2.30;0.47;;;;;;;21.83;45.39;99363.25;4384771;32;20050;-69
2021/09/27 09:36:40;;;;;;;1.95;0.52;;;;;;;21.20;45.10;99372.66;4384512;32;20115;-69
2021/09/27 09:39:19;;;;;;;1.35;0.30;;;;;;;20.72;46.05;99384.28;4384546;32;20041;-69
2021/09/27 09:44:25;;;;;;;0.22;0.20;;;;;;;21.50;46.58;99406.75;3973661;32;15023190;-69
2021/09/27 09:47:10;;;;;;;0.52;0.30;;;;;;;21.50;46.58;99406.75;4425612;32;20102;-69
2021/09/27 09:52:46;;;;;;;1.48;0.37;;;;;;;20.98;46.91;99421.63;3991720;31;15018457;-69
2021/09/27 09:55:36;;;;;;;0.73;0.60;;;;;;;20.90;47.71;99437.81;4446020;32;20098;-69
2021/09/27 09:58:09;;;;;;;1.12;0.60;;;;;;;21.11;46.72;99444.56;4438731;32;20049;-69
2021/09/27 10:03:14;;;;;;;6.00;0.90;;;;;;;21.34;44.78;99450.75;3972848;32;15025170;-69
2021/09/27 10:06:02;;;;;;;1.83;1.00;;;;;;;20.65;45.82;99452.72;4426750;32;20355;-69
2021/09/27 10:08:28;;;;;;;2.03;0.85;;;;;;;21.08;45.93;99462.81;4426641;32;20537;-69
2021/09/27 10:10:59;;;;;;;2.45;1.00;;;;;;;20.45;45.57;99474.00;4429066;32;20053;-68
2021/09/27 10:13:44;;;;;;;2.10;1.00;;;;;;;21.00;44.96;99481.16;4426398;32;20093;-69
2021/09/27 10:24:46;;;;;;;8.60;4.57;;;;;;;22.20;41.55;99520.66;3975339;32;15023024;-69
2021/09/27 10:27:33;;;;;;;8.68;3.92;;;;;;;22.20;41.55;99520.66;4426130;32;20077;-69
2021/09/27 10:30:05;;;;;;;5.05;2.40;;;;;;;21.78;42.27;99512.28;4428285;32;20565;-69
2021/09/27 10:35:30;;;;;;;6.40;2.33;;;;;;;22.04;41.91;99529.53;3974364;32;15023044;-69
2021/09/27 10:38:07;;;;;;;5.40;1.50;;;;;;;22.62;40.37;99542.59;4423613;32;20093;-69
2021/09/27 10:40:35;;;;;;;3.72;1.12;;;;;;;22.98;39.80;99555.16;4428610;32;20441;-69
2021/09/27 10:43:05;;;;;;;1.58;0.70;;;;;;;22.70;39.60;99566.41;4427222;32;20076;-69
2021/09/27 10:45:35;;;;;;;7.35;4.53;;;;;;;22.18;40.09;99563.41;4423796;32;20127;-69
2021/09/27 10:48:01;;;;;;;12.20;5.18;;;;;;;22.81;39.32;99560.47;4427595;32;20194;-69
2021/09/27 10:53:21;;;;;;;3.78;0.90;;;;;;;24.69;36.14;99576.22;3982901;31;15019701;-70
2021/09/27 11:01:07;;;;;;;3.95;1.30;;;;;;;25.14;34.41;99585.19;3968264;32;15022524;-70
2021/09/27 11:03:43;;;;;;;3.17;1.02;;;;;;;24.58;34.73;99582.28;4419170;32;20077;-69
2021/09/27 11:09:11;;;;;;;3.40;0.90;;;;;;;24.66;34.24;99619.63;3974902;32;15023043;-69
2021/09/27 11:11:45;;;;;;;5.75;0.95;;;;;;;24.67;34.23;99619.94;4425137;32;20394;-69
2021/09/27 11:16:58;;;;;;;3.08;0.80;;;;;;;24.64;34.50;99626.03;3978712;32;15022094;-70
2021/09/27 11:25:24;;;;;;;4.35;1.30;;;;;;;25.07;33.70;99643.50;3997987;31;15017411;-69
2021/09/27 11:31:06;;;;;;;1.90;0.85;;;;;;;26.04;31.74;99642.47;3968018;32;15022673;-69
2021/09/27 11:39:11;;;;;;;4.03;1.05;;;;;;;26.98;30.53;99646.66;3990549;31;15021323;-69
2021/09/27 11:41:39;;;;;;;2.25;0.60;;;;;;;26.98;30.53;99646.66;4445794;32;20072;-69
2021/09/27 11:47:10;;;;;;;4.65;1.02;;;;;;;27.66;29.54;99666.78;3976447;32;15024522;-69
2021/09/27 11:57:48;;;;;;;2.62;0.60;;;;;;;28.21;28.37;99687.78;3940975;32;15023407;-71
2021/09/27 12:00:25;;;;;;;4.07;0.80;;;;;;;28.21;28.37;99687.78;4394946;32;20065;-70
2021/09/27 12:05:43;;;;;;;4.43;0.80;;;;;;;28.52;27.61;99702.84;3945635;32;15723511;-70
2021/09/27 12:10:53;;;;;;;8.40;1.10;;;;;;;28.94;26.08;99710.28;3973924;32;15024264;-69
2021/09/27 12:13:23;;;;;;;3.17;0.70;;;;;;;28.94;26.08;99710.28;4427835;32;20107;-70
2021/09/27 12:15:57;;;;;;;5.50;0.90;;;;;;;28.83;26.32;99730.25;4426050;32;20172;-70
2021/09/27 12:21:25;;;;;;;3.90;1.23;;;;;;;28.53;26.57;99739.16;3975635;32;15024000;-68
2021/09/27 12:23:55;;;;;;;2.45;0.82;;;;;;;28.53;26.57;99739.16;4426728;32;20085;-71
2021/09/27 12:26:26;;;;;;;5.93;0.80;;;;;;;27.96;27.19;99733.22;4425551;32;20148;-71
2021/09/27 12:29:03;;;;;;;4.82;0.88;;;;;;;27.98;27.22;99739.16;4425842;32;20168;-71
2021/09/27 12:31:28;;;;;;;5.07;1.33;;;;;;;28.04;26.56;99762.09;4428362;32;20056;-70
2021/09/27 12:33:54;;;;;;;5.62;1.75;;;;;;;27.47;26.79;99740.81;4426384;32;20546;-70
2021/09/27 12:36:22;;;;;;;4.12;1.00;;;;;;;27.77;27.00;99761.00;4424569;32;20108;-70
2021/09/27 12:38:54;;;;;;;4.07;0.60;;;;;;;27.52;26.72;99760.81;4430885;32;20073;-70
2021/09/27 12:41:23;;;;;;;6.53;1.02;;;;;;;26.75;27.37;99746.16;4427726;32;20503;-70
2021/09/27 12:43:50;;;;;;;1.77;0.77;;;;;;;26.85;27.30;99750.78;4423679;32;20433;-70
2021/09/27 12:46:25;;;;;;;5.85;1.30;;;;;;;26.58;27.86;99763.22;4428035;32;20125;-69
2021/09/27 12:49:02;;;;;;;4.05;1.00;;;;;;;25.92;29.44;99759.47;4426048;32;20136;-70
2021/09/27 12:56:55;;;;;;;6.82;1.37;;;;;;;28.01;27.62;99778.47;3944792;32;15023072;-70
2021/09/27 12:59:25;;;;;;;4.85;1.10;;;;;;;28.01;27.62;99778.47;4389733;32;20183;-70
2021/09/27 13:01:58;;;;;;;6.43;1.05;;;;;;;28.23;26.49;99786.34;4394770;32;20053;-70
2021/09/27 13:07:21;;;;;;;4.62;1.00;;;;;;;29.14;24.97;99803.25;3984897;31;15014539;-70
2021/09/27 13:12:37;;;;;;;3.03;0.80;;;;;;;29.67;23.72;99813.09;3950340;32;15028093;-68
2021/09/27 13:21:14;;;;;;;3.15;0.73;;;;;;;30.35;22.28;99841.41;3977024;31;15016916;-68
2021/09/27 13:23:48;;;;;;;8.82;1.17;;;;;;;30.35;22.28;99841.41;4419273;32;20049;-69
2021/09/27 13:26:20;;;;;;;3.80;0.80;;;;;;;31.04;21.87;99827.56;4426063;32;20575;-68
2021/09/27 13:28:53;;;;;;;4.65;1.17;;;;;;;32.60;20.52;99831.22;4412065;32;20134;-68
2021/09/27 13:31:29;;;;;;;6.10;0.80;;;;;;;32.63;20.20;99844.56;4422313;32;20063;-69
2021/09/27 13:33:58;;;;;;;5.18;0.80;;;;;;;32.04;20.72;99853.09;4426417;32;20103;-68
2021/09/27 13:36:45;;;;;;;5.03;0.80;;;;;;;30.44;21.85;99856.00;4427926;32;20195;-69
2021/09/27 13:47:07;;;;;;;3.90;0.68;;;;;;;32.47;20.50;99869.56;3980138;31;15016302;-70
2021/09/27 13:49:34;;;;;;;5.95;0.73;;;;;;;31.85;21.10;99867.59;4431935;32;20188;-69
2021/09/27 13:52:01;;;;;;;3.97;0.68;;;;;;;32.28;20.77;99860.78;4432511;32;20080;-69
2021/09/27 13:54:29;;;;;;;4.05;0.70;;;;;;;32.50;19.92;99880.75;4435423;32;20076;-69
2021/09/27 13:56:55;;;;;;;4.30;0.70;;;;;;;31.31;21.24;99875.62;4432863;32;20848;-69
2021/09/27 13:59:21;;;;;;;7.62;1.40;;;;;;;31.50;21.24;99907.69;4435214;32;20504;-70
2021/09/27 14:01:48;;;;;;;4.28;0.90;;;;;;;31.40;21.43;99877.03;4430167;32;20084;-70
2021/09/27 14:04:13;;;;;;;4.65;0.93;;;;;;;31.76;21.20;99897.41;4428373;32;20147;-70
2021/09/27 14:06:39;;;;;;;2.60;0.80;;;;;;;32.15;20.86;99894.00;4433173;32;20490;-70
2021/09/27 14:09:06;;;;;;;7.57;0.80;;;;;;;32.46;20.77;99888.44;4429026;32;20044;-70
2021/09/27 14:11:33;;;;;;;3.50;1.00;;;;;;;33.32;20.24;99909.53;4430477;32;20073;-70
2021/09/27 14:14:00;;;;;;;8.57;1.17;;;;;;;31.93;21.37;99924.28;4433800;32;20073;-70
2021/09/27 14:16:26;;;;;;;5.18;1.10;;;;;;;32.31;20.99;99912.72;4433030;32;20152;-70
2021/09/27 14:18:52;;;;;;;6.68;1.15;;;;;;;32.48;21.05;99918.47;4432236;32;20052;-69
2021/09/27 14:21:22;;;;;;;6.72;1.83;;;;;;;32.67;21.15;99935.19;4432057;32;20065;-70
2021/09/27 14:23:51;;;;;;;6.10;1.17;;;;;;;32.47;21.43;99928.59;4434625;32;20049;-69
2021/09/27 14:26:18;;;;;;;5.70;1.15;;;;;;;33.45;20.55;99946.22;4434227;32;20107;-69
2021/09/27 14:28:45;;;;;;;7.72;1.10;;;;;;;34.31;19.47;99932.81;4433519;32;20149;-69
2021/09/27 14:31:11;;;;;;;5.25;0.98;;;;;;;34.02;19.53;99943.13;4431785;32;20056;-69
2021/09/27 14:33:38;;;;;;;3.72;0.80;;;;;;;32.90;20.78;99940.59;4432875;32;20510;-69
2021/09/27 14:36:06;;;;;;;4.93;1.00;;;;;;;32.40;21.43;99946.97;4435709;32;20082;-69
2021/09/27 14:38:32;;;;;;;5.30;1.00;;;;;;;33.30;20.56;99950.22;4436524;32;20124;-69
2021/09/27 14:40:58;;;;;;;5.37;1.25;;;;;;;33.37;20.41;99936.88;4435161;32;20418;-69
2021/09/27 14:43:25;;;;;;;3.47;1.00;;;;;;;34.59;19.26;99957.38;4435534;32;20519;-69
2021/09/27 14:45:51;;;;;;;7.57;1.05;;;;;;;35.59;17.92;99964.19;4430160;32;20475;-69
2021/09/27 14:48:18;;;;;;;8.45;1.12;;;;;;;35.06;18.07;99965.03;4435600;32;20380;-69
2021/09/27 14:50:47;;;;;;;10.70;1.40;;;;;;;35.50;17.74;99976.03;4435675;32;20943;-69
2021/09/27 14:53:15;;;;;;;5.37;1.02;;;;;;;35.19;18.12;99975.41;4433170;32;20061;-69
2021/09/27 14:55:42;;;;;;;3.30;0.75;;;;;;;34.62;18.49;99961.97;4431952;32;20156;-69
2021/09/27 14:58:11;;;;;;;6.80;0.85;;;;;;;35.41;18.06;99971.81;4422778;32;20037;-69
2021/09/27 15:00:40;;;;;;;3.42;0.70;;;;;;;36.12;17.21;99975.00;4423286;32;20073;-69
2021/09/27 15:03:06;;;;;;;5.62;1.00;;;;;;;35.37;17.61;99980.31;4425339;32;20081;-69
2021/09/27 15:05:32;;;;;;;8.15;0.82;;;;;;;34.11;18.12;99977.31;4420252;32;20077;-69
2021/09/27 15:07:59;;;;;;;3.25;1.00;;;;;;;33.16;19.15;99978.31;4422235;32;20083;-69
2021/09/27 15:10:27;;;;;;;3.83;1.08;;;;;;;32.81;19.77;99970.47;4424807;32;20113;-69
2021/09/27 15:12:53;;;;;;;6.65;1.30;;;;;;;33.39;19.20;99980.78;4422647;32;21871;-69
2021/09/27 15:15:22;;;;;;;2.28;0.70;;;;;;;33.88;18.89;99988.81;4424244;32;20080;-69
2021/09/27 15:17:49;;;;;;;6.32;0.70;;;;;;;34.28;18.46;99992.47;4424998;32;20041;-69
2021/09/27 15:20:17;;;;;;;7.68;1.10;;;;;;;34.13;18.54;99992.84;4426333;32;20072;-69
2021/09/27 15:22:43;;;;;;;5.62;0.70;;;;;;;34.91;17.76;100005.66;4426826;32;20088;-69
2021/09/27 15:25:18;;;;;;;4.10;1.15;;;;;;;35.28;17.25;100004.53;4422890;32;20034;-69
2021/09/27 15:27:45;;;;;;;2.90;0.65;;;;;;;36.26;16.62;100006.59;4422067;32;20037;-69
2021/09/27 15:30:11;;;;;;;2.75;0.70;;;;;;;35.94;16.78;100022.84;4425397;32;20099;-69
2021/09/27 15:32:40;;;;;;;3.40;1.00;;;;;;;35.90;16.72;100029.25;4425535;32;20034;-69
2021/09/27 15:35:07;;;;;;;8.63;1.20;;;;;;;36.76;16.17;100033.22;4426836;32;20481;-69
2021/09/27 15:37:34;;;;;;;4.82;0.90;;;;;;;35.91;16.57;100032.91;4433534;32;20158;-70
2021/09/27 15:40:00;;;;;;;4.60;0.90;;;;;;;35.32;17.04;100022.38;4427529;32;21127;-70
2021/09/27 15:42:26;;;;;;;4.22;1.08;;;;;;;35.71;16.52;100025.72;4429560;32;20052;-70
2021/09/27 15:44:54;;;;;;;3.95;1.20;;;;;;;35.31;17.17;100034.72;4423943;32;20045;-70
2021/09/27 15:47:20;;;;;;;5.30;0.80;;;;;;;34.84;17.44;100042.44;4432298;32;20068;-70
2021/09/27 15:49:47;;;;;;;4.25;0.73;;;;;;;33.73;18.33;100041.66;4430437;32;20038;-70
2021/09/27 15:52:14;;;;;;;6.00;1.50;;;;;;;33.67;18.53;100044.91;4434719;32;20063;-70
2021/09/27 15:54:40;;;;;;;4.68;1.10;;;;;;;34.04;18.29;100049.12;4430455;32;20434;-70
2021/09/27 15:57:06;;;;;;;4.70;0.95;;;;;;;35.42;17.21;100054.50;4433544;32;20036;-70
2021/09/27 15:59:33;;;;;;;4.05;0.65;;;;;;;35.96;16.52;100064.75;4431898;32;20037;-70
2021/09/27 16:01:59;;;;;;;9.93;0.95;;;;;;;34.65;17.24;100057.19;4432681;32;20148;-70
2021/09/27 16:04:28;;;;;;;4.53;0.95;;;;;;;34.29;17.26;100063.31;4432757;32;20052;-70
2021/09/27 16:06:54;;;;;;;3.47;0.90;;;;;;;34.12;17.48;100081.09;4429975;32;20072;-70
2021/09/27 16:09:20;;;;;;;6.82;1.75;;;;;;;33.55;18.18;100078.25;4430191;32;20425;-71
2021/09/27 16:11:46;;;;;;;7.10;0.95;;;;;;;32.39;19.54;100075.72;4429401;32;20100;-70
2021/09/27 16:14:12;;;;;;;7.37;1.15;;;;;;;33.17;18.89;100090.69;4424842;32;20077;-70
2021/09/27 16:16:40;;;;;;;4.87;1.00;;;;;;;32.40;19.50;100086.00;4430044;32;20095;-70
2021/09/27 16:19:07;;;;;;;7.78;0.90;;;;;;;31.86;20.17;100093.19;4432975;32;20034;-70
2021/09/27 16:21:34;;;;;;;6.47;1.10;;;;;;;32.85;19.15;100099.03;4430115;32;20115;-70
2021/09/27 16:24:00;;;;;;;6.22;1.40;;;;;;;32.98;18.87;100104.47;4433965;32;20069;-70
2021/09/27 16:26:27;;;;;;;6.30;0.90;;;;;;;33.44;18.48;100102.22;4433849;32;20425;-69
2021/09/27 16:28:53;;;;;;;4.05;0.80;;;;;;;32.70;19.24;100111.72;4434153;32;20029;-70
2021/09/27 16:34:10;;;;;;;2.75;0.60;;;;;;;28.97;23.01;100117.53;3959543;32;15025495;-69
2021/09/27 16:36:37;;;;;;;5.82;0.90;;;;;;;28.97;23.01;100117.53;4409036;32;20037;-69
2021/09/27 16:39:04;;;;;;;6.62;1.15;;;;;;;28.12;23.95;100110.78;4419368;32;20076;-69
2021/09/27 16:41:32;;;;;;;9.40;1.40;;;;;;;26.84;25.53;100115.91;4418870;32;20052;-69
2021/09/27 16:43:58;;;;;;;9.10;0.85;;;;;;;26.01;26.57;100125.91;4413128;32;20030;-69
2021/09/27 16:46:24;;;;;;;4.68;1.00;;;;;;;25.25;27.30;100103.22;4418539;32;20111;-69
2021/09/27 16:48:50;;;;;;;5.07;0.95;;;;;;;24.91;27.88;100122.50;4415055;32;20038;-69
2021/09/27 16:51:19;;;;;;;3.22;0.55;;;;;;;24.37;28.59;100119.28;4417990;32;20105;-69